createdAt,value
2019-04-29T00:00:23.966Z,98909.57
2019-04-29T00:02:57.846Z,98905.37
2019-04-29T00:05:32.249Z,98905.52
2019-04-29T00:08:06.043Z,98904.51
2019-04-29T00:10:39.891Z,98900.45
2019-04-29T00:13:14.277Z,98898.13
2019-04-29T00:15:48.263Z,98893.33
2019-04-29T00:18:21.729Z,98884.58
2019-04-29T00:20:55.615Z,98872.37
2019-04-29T00:23:29.355Z,98877.35
2019-04-29T00:26:03.239Z,98878.86
2019-04-29T00:28:37.429Z,98875.17
2019-04-29T00:31:11.139Z,98869.38
2019-04-29T00:33:44.916Z,98874.65
2019-04-29T00:36:19.968Z,98868.75
2019-04-29T00:38:53.771Z,98859.45
2019-04-29T00:41:27.498Z,98858.55
2019-04-29T00:44:01.386Z,98855.46
2019-04-29T00:46:35.082Z,98854.42
2019-04-29T00:49:10.479Z,98857.83
2019-04-29T00:51:44.168Z,98851.38
2019-04-29T00:54:17.919Z,98846.86
2019-04-29T00:56:51.805Z,98845.77
2019-04-29T00:59:25.245Z,98847.81
2019-04-29T01:02:00.932Z,98837.27
2019-04-29T01:04:34.619Z,98838.62
2019-04-29T01:07:08.841Z,98837.42
2019-04-29T01:09:42.792Z,98840.98
2019-04-29T01:12:17.299Z,98843.34
2019-04-29T01:14:52.870Z,98837.05
2019-04-29T01:17:26.605Z,98829.35
2019-04-29T01:20:00.578Z,98830.16
2019-04-29T01:22:34.950Z,98818.84
2019-04-29T01:25:09.630Z,98822.88
2019-04-29T01:27:44.096Z,98826.84
2019-04-29T01:30:38.307Z,98825.30
2019-04-29T01:33:12.601Z,98823.72
2019-04-29T01:35:46.825Z,98819.71
2019-04-29T01:38:20.435Z,98813.52
2019-04-29T01:40:54.471Z,98809.67
2019-04-29T01:43:28.445Z,98806.12
2019-04-29T01:46:03.818Z,98805.31
2019-04-29T01:48:37.480Z,98798.67
2019-04-29T01:51:11.487Z,98799.53
2019-04-29T01:53:45.397Z,98791.80
2019-04-29T01:56:19.270Z,98789.42
2019-04-29T01:58:53.164Z,98788.42
2019-04-29T02:01:29.894Z,98782.98
2019-04-29T02:04:04.492Z,98791.20
2019-04-29T02:06:40.623Z,98781.58
2019-04-29T02:09:16.878Z,98780.00
2019-04-29T02:11:51.574Z,98774.23
2019-04-29T02:14:25.382Z,98778.38
2019-04-29T02:17:00.685Z,98781.37
2019-04-29T02:19:34.422Z,98763.86
2019-04-29T02:22:08.168Z,98768.25
2019-04-29T02:24:41.924Z,98769.98
2019-04-29T02:27:15.790Z,98772.14
2019-04-29T02:29:50.692Z,98770.91
2019-04-29T02:32:24.526Z,98757.86
2019-04-29T02:34:58.319Z,98764.20
2019-04-29T02:37:31.761Z,98760.69
2019-04-29T02:40:06.551Z,98767.45
2019-04-29T02:42:40.849Z,98764.10
2019-04-29T02:45:14.933Z,98767.34
2019-04-29T02:47:49.065Z,98755.81
2019-04-29T02:50:24.375Z,98755.69
2019-04-29T02:52:58.021Z,98761.69
2019-04-29T02:55:32.684Z,98747.28
2019-04-29T02:58:06.836Z,98734.70
2019-04-29T03:00:41.042Z,98735.85
2019-04-29T03:03:16.608Z,98731.58
2019-04-29T03:05:50.369Z,98723.27
2019-04-29T03:08:26.274Z,98725.02
2019-04-29T03:11:25.547Z,98722.16
2019-04-29T03:14:02.202Z,98719.05
2019-04-29T03:16:44.268Z,98697.49
2019-04-29T03:19:32.027Z,98696.14
2019-04-29T03:22:07.035Z,98686.70
2019-04-29T03:24:40.954Z,98689.81
2019-04-29T03:27:14.719Z,98685.17
2019-04-29T03:29:48.577Z,98677.34
2019-04-29T03:32:23.774Z,98670.53
2019-04-29T03:34:58.002Z,98665.94
2019-04-29T03:37:32.228Z,98664.21
2019-04-29T03:40:06.705Z,98660.28
2019-04-29T03:42:41.558Z,98650.78
2019-04-29T03:45:15.941Z,98658.41
2019-04-29T03:47:49.573Z,98655.73
2019-04-29T03:50:23.614Z,98662.55
2019-04-29T03:52:57.519Z,98654.97
2019-04-29T03:55:39.947Z,98641.12
2019-04-29T03:58:06.286Z,98641.09
2019-04-29T04:00:43.897Z,98637.95
2019-04-29T04:03:15.624Z,98646.13
2019-04-29T04:05:50.240Z,98626.85
2019-04-29T04:08:24.980Z,98632.71
2019-04-29T04:10:59.497Z,98627.44
2019-04-29T04:13:36.511Z,98620.51
2019-04-29T04:16:12.735Z,98613.76
2019-04-29T04:18:47.957Z,98616.55
2019-04-29T04:21:22.863Z,98615.38
2019-04-29T04:23:58.250Z,98609.83
2019-04-29T04:26:32.784Z,98605.45
2019-04-29T04:29:06.865Z,98593.89
2019-04-29T04:31:47.695Z,98587.22
2019-04-29T04:34:24.783Z,98573.34
2019-04-29T04:37:00.323Z,98573.74
2019-04-29T04:39:35.322Z,98574.55
2019-04-29T04:42:18.770Z,98577.19
2019-04-29T04:44:53.542Z,98571.45
2019-04-29T04:47:29.168Z,98560.41
2019-04-29T04:50:02.904Z,98555.38
2019-04-29T04:52:36.823Z,98557.32
2019-04-29T04:55:11.888Z,98548.98
2019-04-29T04:57:45.620Z,98551.00
2019-04-29T05:00:20.890Z,98546.68
2019-04-29T05:02:54.944Z,98546.24
2019-04-29T05:05:28.435Z,98535.94
2019-04-29T05:08:02.666Z,98525.04
2019-04-29T05:10:37.813Z,98522.29
2019-04-29T05:13:11.687Z,98515.17
2019-04-29T05:15:45.935Z,98506.25
2019-04-29T05:18:26.912Z,98506.40
2019-04-29T05:21:00.623Z,98502.27
2019-04-29T05:23:34.302Z,98496.60
2019-04-29T05:26:08.259Z,98483.98
2019-04-29T05:28:42.647Z,98473.91
2019-04-29T05:31:16.378Z,98467.55
2019-04-29T05:33:51.285Z,98472.69
2019-04-29T05:36:26.473Z,98460.89
2019-04-29T05:39:00.222Z,98460.77
2019-04-29T05:41:34.864Z,98454.97
2019-04-29T05:44:08.856Z,98464.18
2019-04-29T05:46:42.617Z,98455.03
2019-04-29T05:49:16.744Z,98450.61
2019-04-29T05:51:52.257Z,98445.97
2019-04-29T05:54:26.928Z,98451.77
2019-04-29T05:57:01.374Z,98443.40
2019-04-29T05:59:35.860Z,98439.25
2019-04-29T06:02:09.665Z,98442.50
2019-04-29T06:04:44.111Z,98434.42
2019-04-29T06:07:21.514Z,98430.08
2019-04-29T06:09:52.703Z,98419.48
2019-04-29T06:12:26.987Z,98409.45
2019-04-29T06:15:00.609Z,98419.35
2019-04-29T06:17:34.674Z,98401.22
2019-04-29T06:20:13.059Z,98399.69
2019-04-29T06:22:44.254Z,98394.31
2019-04-29T06:25:18.515Z,98394.46
2019-04-29T06:27:52.256Z,98392.56
2019-04-29T06:30:27.565Z,98380.19
2019-04-29T06:33:01.702Z,98385.22
2019-04-29T06:35:35.442Z,98383.14
2019-04-29T06:38:10.996Z,98391.00
2019-04-29T06:40:45.066Z,98372.48
2019-04-29T06:43:24.388Z,98373.64
2019-04-29T06:45:55.636Z,98365.58
2019-04-29T06:48:29.365Z,98370.89
2019-04-29T06:51:05.432Z,98366.75
2019-04-29T06:53:39.031Z,98366.16
2019-04-29T06:56:12.904Z,98360.20
2019-04-29T06:58:48.971Z,98354.26
2019-04-29T07:01:22.926Z,98354.69
2019-04-29T07:04:15.366Z,98352.61
2019-04-29T07:06:57.082Z,98353.36
2019-04-29T07:09:24.469Z,98341.88
2019-04-29T07:12:01.623Z,98354.20
2019-04-29T07:14:38.525Z,98364.56
2019-04-29T07:17:12.268Z,98358.88
2019-04-29T07:19:47.823Z,98355.30
2019-04-29T07:22:25.775Z,98362.85
2019-04-29T07:24:56.632Z,98352.44
2019-04-29T07:27:30.308Z,98365.62
2019-04-29T07:30:06.581Z,98360.86
2019-04-29T07:32:42.018Z,98355.73
2019-04-29T07:35:15.623Z,98361.86
2019-04-29T07:37:49.819Z,98358.58
2019-04-29T07:40:23.959Z,98355.91
2019-04-29T07:43:02.892Z,98357.84
2019-04-29T07:45:44.070Z,98359.77
2019-04-29T07:48:12.895Z,98361.70
2019-04-29T07:50:47.201Z,98363.19
2019-04-29T07:53:26.925Z,98366.21
2019-04-29T07:55:55.843Z,98363.22
2019-04-29T07:58:29.794Z,98367.41
2019-04-29T08:01:03.721Z,98364.55
2019-04-29T08:03:38.440Z,98372.38
2019-04-29T08:06:13.228Z,98368.63
2019-04-29T08:08:54.834Z,98357.02
2019-04-29T08:11:22.286Z,98361.45
2019-04-29T08:13:56.562Z,98358.58
2019-04-29T08:16:31.585Z,98350.47
2019-04-29T08:19:07.110Z,98349.73
2019-04-29T08:21:41.524Z,98351.02
2019-04-29T08:24:15.768Z,98347.91
2019-04-29T08:26:50.019Z,98347.83
2019-04-29T08:29:25.276Z,98349.92
2019-04-29T08:32:02.217Z,98339.48
2019-04-29T08:34:34.777Z,98343.71
2019-04-29T08:37:08.674Z,98340.13
2019-04-29T08:39:42.340Z,98341.70
2019-04-29T08:42:16.697Z,98342.00
2019-04-29T08:44:50.332Z,98343.72
2019-04-29T08:47:30.538Z,98343.09
2019-04-29T08:49:59.416Z,98340.27
2019-04-29T08:52:33.084Z,98350.55
2019-04-29T08:55:07.878Z,98346.68
2019-04-29T08:57:41.392Z,98348.98
2019-04-29T09:00:15.539Z,98345.58
2019-04-29T09:02:49.520Z,98351.69
2019-04-29T09:05:23.072Z,98355.34
2019-04-29T09:07:58.719Z,98364.79
2019-04-29T09:10:32.963Z,98364.38
2019-04-29T09:13:07.163Z,98362.98
2019-04-29T09:15:40.900Z,98357.27
2019-04-29T09:18:14.685Z,98357.77
2019-04-29T09:20:48.573Z,98346.31
2019-04-29T09:23:23.815Z,98344.57
2019-04-29T09:26:02.948Z,98352.33
2019-04-29T09:28:36.523Z,98352.98
2019-04-29T09:31:14.365Z,98350.38
2019-04-29T09:33:49.126Z,98350.47
2019-04-29T09:36:23.337Z,98351.98
2019-04-29T09:38:57.207Z,98353.94
2019-04-29T09:41:35.063Z,98360.48
2019-04-29T09:44:06.070Z,98364.84
2019-04-29T09:46:39.880Z,98370.48
2019-04-29T09:49:13.627Z,98380.93
2019-04-29T09:51:49.269Z,98380.77
2019-04-29T09:54:24.554Z,98377.77
2019-04-29T09:56:58.455Z,98382.36
2019-04-29T09:59:32.222Z,98383.53
2019-04-29T10:02:06.202Z,98383.18
2019-04-29T10:04:55.209Z,98386.25
2019-04-29T10:07:18.664Z,98389.00
2019-04-29T10:09:57.297Z,98380.84
2019-04-29T10:12:27.820Z,98381.17
2019-04-29T10:15:02.720Z,98380.73
2019-04-29T10:17:36.948Z,98386.33
2019-04-29T10:20:12.595Z,98388.47
2019-04-29T10:22:50.227Z,98396.05
2019-04-29T10:25:21.941Z,98392.50
2019-04-29T10:27:55.892Z,98389.64
2019-04-29T10:30:31.151Z,98397.67
2019-04-29T10:33:05.683Z,98398.70
2019-04-29T10:35:40.803Z,98400.88
2019-04-29T10:38:16.795Z,98402.83
2019-04-29T10:41:00.751Z,98402.43
2019-04-29T10:43:35.822Z,98405.38
2019-04-29T10:46:09.770Z,98402.09
2019-04-29T10:48:43.749Z,98400.09
2019-04-29T10:51:18.142Z,98404.02
2019-04-29T10:53:52.692Z,98404.06
2019-04-29T10:56:28.230Z,98409.50
2019-04-29T10:59:04.498Z,98410.56
2019-04-29T11:02:09.116Z,98424.38
2019-04-29T11:04:38.409Z,98427.94
2019-04-29T11:07:18.460Z,98437.23
2019-04-29T11:09:50.908Z,98445.22
2019-04-29T11:12:25.814Z,98444.80
2019-04-29T11:15:01.794Z,98453.58
2019-04-29T11:17:39.759Z,98454.50
2019-04-29T11:20:15.912Z,98453.34
2019-04-29T11:22:46.977Z,98465.27
2019-04-29T11:25:21.755Z,98465.55
2019-04-29T11:27:56.247Z,98458.02
2019-04-29T11:30:37.490Z,98468.77
2019-04-29T11:33:06.301Z,98461.20
2019-04-29T11:35:41.620Z,98474.25
2019-04-29T11:38:16.368Z,98479.17
2019-04-29T11:40:52.541Z,98482.70
2019-04-29T11:43:27.620Z,98475.32
2019-04-29T11:46:04.875Z,98486.40
2019-04-29T11:48:39.981Z,98491.38
2019-04-29T11:51:14.463Z,98485.13
2019-04-29T11:53:49.499Z,98484.97
2019-04-29T11:56:31.531Z,98486.69
2019-04-29T11:59:09.893Z,98484.08
2019-04-29T12:01:51.642Z,98497.85
2019-04-29T12:04:28.671Z,98486.41
2019-04-29T12:07:01.733Z,98490.08
2019-04-29T12:09:35.626Z,98484.58
2019-04-29T12:12:12.899Z,98493.02
2019-04-29T12:15:04.975Z,98497.31
2019-04-29T12:17:39.604Z,98498.87
2019-04-29T12:20:16.354Z,98495.64
2019-04-29T12:22:50.555Z,98495.56
2019-04-29T12:25:27.525Z,98508.69
2019-04-29T12:28:01.869Z,98509.80
2019-04-29T12:30:36.559Z,98508.79
2019-04-29T12:33:17.530Z,98510.16
2019-04-29T12:35:54.456Z,98504.12
2019-04-29T12:38:39.410Z,98493.08
2019-04-29T12:41:04.195Z,98497.69
2019-04-29T12:43:39.411Z,98494.63
2019-04-29T12:46:17.702Z,98489.38
2019-04-29T12:48:54.028Z,98491.45
2019-04-29T12:51:29.883Z,98490.44
2019-04-29T12:54:11.638Z,98492.02
2019-04-29T12:56:49.460Z,98484.84
2019-04-29T12:59:24.792Z,98481.14
2019-04-29T13:01:59.523Z,98487.20
2019-04-29T13:04:37.496Z,98470.66
2019-04-29T13:07:10.410Z,98469.42
2019-04-29T13:09:48.418Z,98464.74
2019-04-29T13:12:21.283Z,98464.50
2019-04-29T13:15:03.014Z,98454.82
2019-04-29T13:17:32.295Z,98453.77
2019-04-29T13:20:11.630Z,98457.14
2019-04-29T13:22:42.537Z,98460.55
2019-04-29T13:25:20.823Z,98454.01
2019-04-29T13:28:03.946Z,98445.84
2019-04-29T13:30:34.287Z,98449.55
2019-04-29T13:33:16.545Z,98447.47
2019-04-29T13:35:49.710Z,98441.91
2019-04-29T13:38:24.901Z,98439.80
2019-04-29T13:41:13.094Z,98449.82
2019-04-29T13:43:36.113Z,98443.03
2019-04-29T13:46:10.808Z,98443.03
2019-04-29T13:48:55.437Z,98438.45
2019-04-29T13:51:35.233Z,98439.72
2019-04-29T13:54:02.343Z,98441.42
2019-04-29T13:56:54.559Z,98441.18
2019-04-29T13:59:13.780Z,98440.20
2019-04-29T14:01:59.913Z,98439.80
2019-04-29T14:04:25.994Z,98437.55
2019-04-29T14:07:08.041Z,98435.20
2019-04-29T14:09:47.743Z,98433.05
2019-04-29T14:14:58.589Z,98440.67
2019-04-29T14:17:35.742Z,98437.59
2019-04-29T14:20:15.802Z,98433.48
2019-04-29T14:22:49.031Z,98443.98
2019-04-29T14:25:23.762Z,98442.27
2019-04-29T14:27:59.090Z,98444.47
2019-04-29T14:30:38.945Z,98440.34
2019-04-29T14:33:11.001Z,98441.31
2019-04-29T14:35:48.234Z,98448.36
2019-04-29T14:38:24.078Z,98450.75
2019-04-29T14:40:56.581Z,98446.98
2019-04-29T14:43:32.059Z,98448.27
2019-04-29T14:46:05.880Z,98445.64
2019-04-29T14:48:42.649Z,98443.80
2019-04-29T14:51:14.852Z,98452.14
2019-04-29T14:53:56.449Z,98445.80
2019-04-29T14:56:25.370Z,98439.66
2019-04-29T14:59:06.560Z,98435.45
2019-04-29T15:01:35.954Z,98432.00
2019-04-29T15:04:17.790Z,98435.45
2019-04-29T15:06:45.538Z,98428.42
2019-04-29T15:09:19.971Z,98427.36
2019-04-29T15:11:53.803Z,98429.40
2019-04-29T15:14:29.219Z,98434.81
2019-04-29T15:17:03.101Z,98437.84
2019-04-29T15:19:37.004Z,98442.12
2019-04-29T15:22:10.998Z,98430.31
2019-04-29T15:24:44.702Z,98425.13
2019-04-29T15:27:18.877Z,98432.67
2019-04-29T15:29:53.096Z,98434.81
2019-04-29T15:32:28.597Z,98443.33
2019-04-29T15:35:02.959Z,98438.72
2019-04-29T15:37:36.751Z,98436.98
2019-04-29T15:40:11.599Z,98437.86
2019-04-29T15:42:49.108Z,98441.34
2019-04-29T15:45:20.231Z,98438.81
2019-04-29T15:47:54.494Z,98434.65
2019-04-29T15:50:32.523Z,98428.56
2019-04-29T15:53:06.181Z,98426.74
2019-04-29T15:55:41.292Z,98426.08
2019-04-29T15:58:22.436Z,98427.91
2019-04-29T16:00:52.912Z,98414.78
2019-04-29T16:03:27.008Z,98419.68
2019-04-29T16:06:19.924Z,98413.14
2019-04-29T16:08:41.193Z,98404.38
2019-04-29T16:11:16.967Z,98393.14
2019-04-29T16:14:08.299Z,98393.28
2019-04-29T16:16:25.446Z,98397.44
2019-04-29T16:19:07.298Z,98394.44
2019-04-29T16:21:39.270Z,98405.44
2019-04-29T16:24:25.990Z,98400.58
2019-04-29T16:26:45.991Z,98409.69
2019-04-29T16:29:19.807Z,98402.72
2019-04-29T16:31:54.903Z,98397.83
2019-04-29T16:34:28.692Z,98400.80
2019-04-29T16:37:03.157Z,98395.94
2019-04-29T16:39:38.917Z,98404.09
2019-04-29T16:42:12.792Z,98397.03
2019-04-29T16:44:46.803Z,98390.97
2019-04-29T16:47:20.500Z,98390.19
2019-04-29T16:49:57.544Z,98384.83
2019-04-29T16:52:29.058Z,98379.27
2019-04-29T16:55:05.848Z,98385.75
2019-04-29T16:57:40.728Z,98375.53
2019-04-29T17:00:18.299Z,98373.19
2019-04-29T17:02:52.041Z,98373.64
2019-04-29T17:05:25.712Z,98367.05
2019-04-29T17:07:59.940Z,98365.25
2019-04-29T17:10:34.874Z,98359.17
2019-04-29T17:13:09.092Z,98363.08
2019-04-29T17:15:44.623Z,98358.98
2019-04-29T17:18:20.921Z,98352.34
2019-04-29T17:21:04.615Z,98352.66
2019-04-29T17:23:29.645Z,98362.61
2019-04-29T17:26:03.996Z,98361.22
2019-04-29T17:28:37.589Z,98356.95
2019-04-29T17:31:12.848Z,98356.02
2019-04-29T17:33:50.032Z,98361.27
2019-04-29T17:36:23.882Z,98356.49
2019-04-29T17:38:56.682Z,98360.72
2019-04-29T17:41:30.404Z,98354.75
2019-04-29T17:44:04.160Z,98360.17
2019-04-29T17:46:38.030Z,98359.02
2019-04-29T17:49:11.574Z,98361.41
2019-04-29T17:51:45.932Z,98356.28
2019-04-29T17:54:21.407Z,98352.27
2019-04-29T17:57:15.356Z,98346.55
2019-04-29T17:59:30.821Z,98346.73
2019-04-29T18:02:05.381Z,98352.14
2019-04-29T18:04:39.221Z,98341.08
2019-04-29T18:07:14.704Z,98348.92
2019-04-29T18:09:48.513Z,98344.92
2019-04-29T18:12:22.155Z,98341.03
2019-04-29T18:14:56.102Z,98343.43
2019-04-29T18:17:31.310Z,98341.77
2019-04-29T18:20:07.070Z,98334.38
2019-04-29T18:22:40.478Z,98333.81
2019-04-29T18:25:16.363Z,98336.76
2019-04-29T18:27:53.167Z,98340.30
2019-04-29T18:30:35.398Z,98337.73
2019-04-29T18:33:00.455Z,98326.13
2019-04-29T18:35:35.802Z,98326.61
2019-04-29T18:38:11.974Z,98319.78
2019-04-29T18:40:46.380Z,98316.71
2019-04-29T18:43:22.845Z,98316.44
2019-04-29T18:45:58.733Z,98318.05
2019-04-29T18:48:29.670Z,98310.11
2019-04-29T18:51:03.434Z,98308.00
2019-04-29T18:53:37.132Z,98304.38
2019-04-29T18:56:10.784Z,98305.45
2019-04-29T18:58:46.864Z,98304.69
2019-04-29T19:01:19.720Z,98304.30
2019-04-29T19:03:55.631Z,98302.48
2019-04-29T19:06:28.949Z,98292.28
2019-04-29T19:09:02.958Z,98290.30
2019-04-29T19:11:37.178Z,98286.17
2019-04-29T19:14:11.596Z,98283.19
2019-04-29T19:16:45.902Z,98283.59
2019-04-29T19:19:21.051Z,98281.89
2019-04-29T19:21:55.935Z,98282.53
2019-04-29T19:24:31.434Z,98280.17
2019-04-29T19:27:09.151Z,98279.41
2019-04-29T19:29:43.238Z,98274.45
2019-04-29T19:32:18.914Z,98276.13
2019-04-29T19:34:50.040Z,98284.39
2019-04-29T19:37:27.133Z,98281.29
2019-04-29T19:40:00.095Z,98284.09
2019-04-29T19:42:35.926Z,98280.95
2019-04-29T19:45:13.360Z,98283.47
2019-04-29T19:47:47.056Z,98283.02
2019-04-29T19:50:19.713Z,98273.66
2019-04-29T19:52:55.442Z,98271.01
2019-04-29T19:55:33.327Z,98272.67
2019-04-29T19:58:07.271Z,98273.26
2019-04-29T20:00:40.740Z,98261.23
2019-04-29T20:03:23.036Z,98265.77
2019-04-29T20:05:50.319Z,98264.04
2019-04-29T20:08:46.368Z,98254.42
2019-04-29T20:11:11.425Z,98256.34
2019-04-29T20:13:36.404Z,98257.66
2019-04-29T20:16:12.785Z,98256.00
2019-04-29T20:18:58.425Z,98260.95
2019-04-29T20:21:24.669Z,98253.02
2019-04-29T20:23:53.647Z,98254.52
2019-04-29T20:26:29.688Z,98253.48
2019-04-29T20:29:02.352Z,98258.38
2019-04-29T20:31:38.868Z,98259.86
2019-04-29T20:34:11.258Z,98262.20
2019-04-29T20:36:45.724Z,98251.77
2019-04-29T20:39:23.213Z,98258.80
2019-04-29T20:41:56.434Z,98255.33
2019-04-29T20:44:30.587Z,98251.54
2019-04-29T20:47:19.772Z,98252.72
2019-04-29T20:49:39.908Z,98245.39
2019-04-29T20:52:20.353Z,98251.28
2019-04-29T20:54:57.765Z,98252.66
2019-04-29T20:57:27.725Z,98254.83
2019-04-29T21:00:02.380Z,98249.33
2019-04-29T21:02:37.445Z,98245.12
2019-04-29T21:05:19.604Z,98244.55
2019-04-29T21:07:49.086Z,98240.45
2019-04-29T21:10:21.570Z,98252.91
2019-04-29T21:12:55.756Z,98257.05
2019-04-29T21:15:29.530Z,98256.56
2019-04-29T21:18:05.427Z,98260.31
2019-04-29T21:20:39.264Z,98260.53
2019-04-29T21:23:12.865Z,98257.95
2019-04-29T21:25:46.612Z,98262.80
2019-04-29T21:28:20.752Z,98266.02
2019-04-29T21:30:56.706Z,98264.36
2019-04-29T21:33:31.250Z,98267.18
2019-04-29T21:36:05.339Z,98267.11
2019-04-29T21:38:39.288Z,98270.16
2019-04-29T21:41:15.493Z,98266.53
2019-04-29T21:43:53.403Z,98276.18
2019-04-29T21:46:27.798Z,98276.42
2019-04-29T21:48:59.762Z,98284.75
2019-04-29T21:51:35.418Z,98284.50
2019-04-29T21:54:14.262Z,98286.13
2019-04-29T21:56:47.781Z,98295.33
2019-04-29T21:59:22.019Z,98298.23
2019-04-29T22:01:56.214Z,98300.03
2019-04-29T22:04:32.833Z,98302.52
2019-04-29T22:07:07.971Z,98309.80
2019-04-29T22:09:44.759Z,98307.25
2019-04-29T22:12:20.128Z,98307.48
2019-04-29T22:14:53.948Z,98308.92
2019-04-29T22:17:32.964Z,98300.52
2019-04-29T22:20:03.904Z,98303.31
2019-04-29T22:22:37.151Z,98307.20
2019-04-29T22:25:11.641Z,98309.17
2019-04-29T22:27:45.412Z,98310.59
2019-04-29T22:30:19.995Z,98304.15
2019-04-29T22:32:56.145Z,98303.27
2019-04-29T22:35:32.862Z,98296.06
2019-04-29T22:38:12.081Z,98307.30
2019-04-29T22:40:42.933Z,98305.30
2019-04-29T22:43:16.760Z,98308.24
2019-04-29T22:45:50.772Z,98310.42
2019-04-29T22:48:25.044Z,98308.62
2019-04-29T22:50:58.847Z,98304.55
2019-04-29T22:53:32.583Z,98303.86
2019-04-29T22:56:08.963Z,98301.39
2019-04-29T22:58:43.848Z,98295.61
2019-04-29T23:01:17.857Z,98295.72
2019-04-29T23:03:51.717Z,98295.91
2019-04-29T23:06:25.896Z,98290.95
2019-04-29T23:09:00.175Z,98290.95
2019-04-29T23:11:34.795Z,98289.67
2019-04-29T23:14:10.047Z,98289.92
2019-04-29T23:16:45.467Z,98284.13
2019-04-29T23:19:19.570Z,98284.00
2019-04-29T23:21:53.079Z,98281.11
2019-04-29T23:24:29.096Z,98280.59
2019-04-29T23:27:06.087Z,98276.45
2019-04-29T23:29:43.283Z,98272.32
2019-04-29T23:32:16.159Z,98270.64
2019-04-29T23:34:49.993Z,98260.23
2019-04-29T23:37:27.142Z,98262.23
2019-04-29T23:39:58.607Z,98264.80
2019-04-29T23:42:32.494Z,98260.76
2019-04-29T23:45:07.650Z,98265.81
2019-04-29T23:47:41.814Z,98263.13
2019-04-29T23:50:18.782Z,98261.93
2019-04-29T23:52:52.052Z,98264.50
2019-04-29T23:55:29.120Z,98261.32
2019-04-29T23:58:03.672Z,98265.66
